Latest Weather Observations for Mount Boyce

IDN60901

Issued at 5:45 am EDT Thursday 27 November 2014 (issued every 10 minutes, with the page automatically refreshed every 10 minutes)

About weather observations | Map of Sydney area stations | Latest observations for Sydney area | Other Formats
Station Details ID: 063292 Name: MOUNT BOYCE AWS Lat: -33.62 Lon: 150.27 Height: 1080.0 m
Data from the previous 72 hours. | See also: Recent months at Mount Boyce
Date/Time
EDT
Tmp

°C
App
Tmp
°C
Dew
Point
°C
Rel
Hum
%
Delta-T

°C
Wind Press
QNH
hPa
Press
MSL
hPa
Rain
since
9 am
mm
Dir
 
Spd
km/h
Gust
km/h
Spd
kts
Gust
kts
27/05:30am 12.3 11.0 11.4 94 0.5 E 9 15 5 8 - - 0.0
27/05:00am 12.3 11.0 11.4 94 0.5 E 9 13 5 7 - - 0.0
27/04:30am 12.3 11.0 11.4 94 0.5 E 9 19 5 10 - - 0.0
27/04:12am 12.2 10.9 11.3 94 0.5 E 9 17 5 9 - - 0.0
27/04:00am 12.0 10.3 11.1 94 0.5 E 11 19 6 10 - - 0.0
27/03:30am 12.5 11.7 11.7 95 0.4 E 7 15 4 8 - - 0.0
27/03:20am 12.4 11.2 11.6 95 0.4 E 9 17 5 9 - - 0.0
27/03:17am 12.4 11.2 11.6 95 0.4 E 9 17 5 9 - - 0.0
27/03:09am 12.5 11.3 11.7 95 0.4 E 9 15 5 8 - - 0.0
27/03:02am 12.4 11.2 11.6 95 0.4 E 9 17 5 9 - - 0.0
27/03:00am 12.4 11.2 11.6 95 0.4 E 9 17 5 9 - - 0.0
27/02:30am 12.4 11.2 11.5 94 0.5 E 9 17 5 9 - - 0.0
27/02:00am 12.4 10.7 11.3 93 0.6 E 11 19 6 10 - - 0.0
27/01:57am 12.4 10.7 11.3 93 0.6 E 11 22 6 12 - - 0.0
27/01:35am 12.7 11.1 11.6 93 0.6 E 11 24 6 13 - - 0.0
27/01:30am 12.9 11.4 11.8 93 0.6 E 11 19 6 10 - - 0.0
27/01:00am 12.8 11.2 11.7 93 0.6 E 11 19 6 10 - - 0.0
27/12:58am 12.8 11.2 11.7 93 0.6 E 11 19 6 10 - - 0.0
27/12:48am 12.9 11.0 11.8 93 0.6 E 13 22 7 12 - - 0.0
27/12:38am 13.3 11.5 12.0 92 0.7 E 13 19 7 10 - - 0.0
27/12:30am 13.5 12.5 12.4 93 0.6 E 9 17 5 9 - - 0.0
27/12:09am 13.4 12.4 12.3 93 0.6 E 9 17 5 9 - - 0.0
27/12:00am 13.4 12.0 12.3 93 0.6 E 11 22 6 12 - - 0.0
 
Date/Time
EDT
Tmp

°C
App
Tmp
°C
Dew
Point
°C
Rel
Hum
%
Delta-T

°C
Wind Press
QNH
hPa
Press
MSL
hPa
Rain
since
9 am
mm
Dir
 
Spd
km/h
Gust
km/h
Spd
kts
Gust
kts
26/11:30pm 13.8 12.6 12.7 93 0.6 E 11 19 6 10 - - 0.0
26/11:00pm 14.1 13.3 13.0 93 0.6 E 9 17 5 9 - - 0.0
26/10:37pm 14.0 12.7 12.6 91 0.8 ENE 11 20 6 11 - - 0.0
26/10:35pm 13.9 12.5 12.3 90 0.9 ENE 11 20 6 11 - - 0.0
26/10:30pm 14.0 12.6 12.2 89 1.0 E 11 17 6 9 - - 0.0
26/10:00pm 14.9 13.9 13.4 91 0.9 E 11 20 6 11 - - 0.0
26/09:30pm 15.0 14.0 13.4 90 0.9 E 11 22 6 12 - - 0.0
26/09:13pm 15.3 14.3 13.5 89 1.1 E 11 19 6 10 - - 0.0
26/09:00pm 15.6 15.1 13.8 89 1.1 E 9 20 5 11 - - 0.0
26/08:30pm 15.7 15.2 13.9 89 1.1 ENE 9 17 5 9 - - 0.0
26/08:29pm 15.7 14.9 13.9 89 1.1 ENE 11 17 6 9 - - 0.0
26/08:05pm 15.6 14.2 13.3 86 1.4 ENE 13 17 7 9 - - 0.0
26/08:00pm 15.7 14.6 13.2 85 1.5 ENE 11 17 6 9 - - 0.0
26/07:30pm 16.9 15.7 12.8 77 2.4 ENE 11 17 6 9 - - 0.0
26/07:00pm 18.4 17.6 13.0 71 3.2 ENE 9 17 5 9 - - 0.0
26/06:30pm 19.5 18.5 13.4 68 3.7 ENE 11 17 6 9 - - 0.0
26/06:00pm 19.7 18.2 13.2 66 3.9 E 13 19 7 10 - - 0.0
26/05:30pm 20.8 19.5 13.7 64 4.3 ENE 13 22 7 12 - - 0.0
26/05:00pm 20.9 19.6 13.6 63 4.4 ENE 13 24 7 13 - - 0.0
26/04:30pm 20.6 19.3 13.8 65 4.1 E 13 20 7 11 - - 0.0
26/04:00pm 22.7 21.6 14.3 59 5.2 ENE 13 20 7 11 - - 0.0
26/03:30pm 21.4 20.9 13.8 62 4.6 ENE 9 15 5 8 - - 0.0
26/03:00pm 22.5 19.9 5.9 34 8.8 W 9 22 5 12 - - 0.0
26/02:30pm 21.7 20.7 11.1 51 6.2 ENE 7 17 4 9 - - 0.0
26/02:00pm 20.1 19.8 12.8 63 4.3 NE 6 13 3 7 - - 0.0
26/01:30pm 21.1 19.2 10.6 51 6.0 WNW 11 19 6 10 - - 0.0
26/01:00pm 20.5 19.5 12.2 59 4.9 NNE 9 19 5 10 - - 0.0
26/12:30pm 19.7 18.5 11.5 59 4.8 N 9 17 5 9 - - 0.0
26/12:00pm 18.2 17.2 12.2 68 3.5 NNE 9 15 5 8 - - 0.0
26/11:30am 17.9 16.8 13.2 74 2.8 NNE 11 20 6 11 - - 0.0
26/11:09am 16.7 15.2 11.8 73 2.8 NNE 11 20 6 11 - - 0.0
26/11:00am 16.8 15.4 12.3 75 2.6 NE 11 20 6 11 - - 0.0
26/10:30am 15.1 13.9 11.5 79 2.0 NE 9 15 5 8 - - 0.0
26/10:00am 15.6 14.5 12.0 79 2.1 N 9 17 5 9 - - 0.0
26/09:30am 14.1 12.8 11.1 82 1.7 NE 9 15 5 8 - - 0.0
26/09:00am 13.3 12.4 10.7 84 1.4 NE 6 11 3 6 - - 0.0
26/08:30am 12.9 11.7 10.3 84 1.4 NE 7 17 4 9 - - 0.0
26/08:00am 12.6 10.9 10.0 84 1.4 NE 9 15 5 8 - - 0.0
26/07:42am 12.1 10.0 9.7 85 1.3 NE 11 19 6 10 - - 0.0
26/07:38am 12.1 10.0 9.8 86 1.2 ENE 11 20 6 11 - - 0.0
26/07:30am 12.1 10.5 10.3 89 1.0 ENE 9 17 5 9 - - 0.0
26/07:16am 11.4 9.4 10.0 91 0.8 NE 11 24 6 13 - - 0.0
26/07:00am 11.3 9.4 10.5 95 0.4 NE 11 19 6 10 - - 0.0
26/06:30am 11.3 10.2 10.7 96 0.3 ENE 7 15 4 8 - - 0.0
26/06:00am 10.9 9.3 10.3 96 0.3 ENE 9 17 5 9 - - 0.0
26/05:37am 10.7 9.0 9.9 95 0.4 NE 9 19 5 10 - - 0.0
26/05:30am 10.6 8.9 9.8 95 0.4 NE 9 19 5 10 - - 0.0
26/05:00am 10.8 9.5 10.0 95 0.4 ENE 7 17 4 9 - - 0.0
26/04:30am 10.4 8.6 9.3 93 0.6 ENE 9 17 5 9 - - 0.0
26/04:00am 11.0 9.4 10.1 94 0.5 ENE 9 20 5 11 - - 0.0
26/03:30am 11.2 9.5 9.9 92 0.7 ENE 9 13 5 7 - - 0.0
26/03:28am 11.2 9.5 9.9 92 0.7 ENE 9 15 5 8 - - 0.0
26/03:00am 11.3 9.6 10.0 92 0.7 ENE 9 17 5 9 - - 0.0
26/02:30am 11.5 10.3 10.4 93 0.6 ENE 7 15 4 8 - - 0.0
26/02:12am 11.5 10.3 10.4 93 0.6 E 7 13 4 7 - - 0.0
26/02:00am 11.7 10.8 10.6 93 0.6 E 6 9 3 5 - - 0.0
26/01:58am 11.7 10.8 10.6 93 0.6 ENE 6 9 3 5 - - 0.0
26/01:49am 11.7 10.8 10.6 93 0.6 E 6 11 3 6 - - 0.0
26/01:30am 11.6 10.5 10.5 93 0.6 ENE 7 11 4 6 - - 0.0
26/01:24am 11.6 10.5 10.5 93 0.6 ENE 7 13 4 7 - - 0.0
26/01:02am 11.9 10.8 10.8 93 0.6 ENE 7 13 4 7 - - 0.0
26/01:00am 11.9 10.8 10.8 93 0.6 ENE 7 13 4 7 - - 0.0
26/12:30am 11.8 10.3 10.7 93 0.6 E 9 15 5 8 - - 0.0
26/12:00am 12.0 10.7 11.1 94 0.5 ENE 9 15 5 8 - - 0.0
 
Date/Time
EDT
Tmp

°C
App
Tmp
°C
Dew
Point
°C
Rel
Hum
%
Delta-T

°C
Wind Press
QNH
hPa
Press
MSL
hPa
Rain
since
9 am
mm
Dir
 
Spd
km/h
Gust
km/h
Spd
kts
Gust
kts
25/11:30pm 12.0 10.7 11.2 95 0.4 ENE 9 19 5 10 - - 0.0
25/11:00pm 12.1 11.2 11.2 94 0.5 E 7 13 4 7 - - 0.0
25/10:30pm 12.4 11.1 11.3 93 0.6 E 9 13 5 7 - - 0.0
25/10:00pm 12.5 10.8 11.1 91 0.8 E 11 24 6 13 - - 0.0
25/09:43pm 12.8 11.1 11.2 90 0.9 ENE 11 22 6 12 - - 0.0
25/09:30pm 12.9 10.4 11.1 89 1.0 ENE 15 24 8 13 - - 0.0
25/09:00pm 13.3 11.3 11.4 88 1.1 ENE 13 20 7 11 - - 0.0
25/08:30pm 13.4 11.0 11.3 87 1.2 ENE 15 24 8 13 - - 0.0
25/08:18pm 13.5 11.4 11.2 86 1.3 ENE 13 20 7 11 - - 0.0
25/08:00pm 13.7 11.8 10.5 81 1.8 ENE 11 20 6 11 - - 0.0
25/07:30pm 15.9 13.6 10.4 70 3.1 ENE 13 20 7 11 - - 0.0
25/07:00pm 17.5 15.1 10.1 62 4.1 ENE 13 22 7 12 - - 0.0
25/06:30pm 19.8 17.7 8.2 47 6.3 ENE 9 19 5 10 - - 0.0
25/06:00pm 21.8 19.7 5.7 35 8.5 SSE 6 13 3 7 - - 0.0
25/05:30pm 22.6 17.2 -4.5 16 11.9 SW 15 24 8 13 - - 0.0
25/05:00pm 23.3 18.5 -5.7 14 12.5 S 11 19 6 10 - - 0.0
25/04:30pm 21.9 17.1 -2.7 19 11.1 SW 13 24 7 13 - - 0.0
25/04:00pm 22.6 17.9 -1.5 20 11.2 W 13 24 7 13 - - 0.0
25/03:30pm 21.5 17.4 -3.1 19 11.0 W 9 17 5 9 - - 0.0
25/03:00pm 19.9 15.6 -4.4 19 10.4 SW 9 19 5 10 - - 0.0
25/02:30pm 19.9 15.2 -1.8 23 9.8 WSW 13 24 7 13 - - 0.0
25/02:00pm 19.0 14.3 -2.0 24 9.4 W 13 17 7 9 - - 0.0
25/01:30pm 18.2 13.5 -1.6 26 8.9 W 13 22 7 12 - - 0.0
25/01:00pm 16.9 12.2 -1.7 28 8.2 W 13 20 7 11 - - 0.0
25/12:30pm 16.7 11.4 -0.9 30 7.9 WSW 17 24 9 13 - - 0.0
25/12:00pm 15.8 10.2 -3.1 27 8.0 WSW 17 26 9 14 - - 0.0
25/11:30am 15.3 9.4 -2.2 30 7.5 WSW 19 30 10 16 - - 0.0
25/11:00am 14.6 8.9 0.5 38 6.4 W 20 26 11 14 - - 0.0
25/10:30am 14.2 8.0 2.1 44 5.7 WSW 24 35 13 19 - - 0.0
25/10:00am 13.9 7.1 3.1 48 5.1 WSW 28 41 15 22 - - 0.0
25/09:30am 14.1 7.5 4.4 52 4.8 WSW 28 43 15 23 - - 0.0
25/09:04am 14.4 8.3 6.5 59 4.0 WSW 28 46 15 25 - - 0.0
25/09:00am 14.3 8.7 7.1 62 3.7 WSW 26 37 14 20 - - 18.6
25/08:33am 14.2 8.9 9.8 75 2.4 WSW 28 37 15 20 - - 18.6
25/08:30am 14.2 8.4 9.4 73 2.6 WSW 30 43 16 23 - - 18.6
25/08:19am 14.5 8.2 9.7 73 2.6 WSW 33 57 18 31 - - 18.6
25/08:18am 14.6 8.7 10.6 77 2.2 WSW 32 46 17 25 - - 18.6
25/08:08am 14.9 10.1 11.5 80 1.9 WSW 28 46 15 25 - - 18.6
25/08:00am 14.9 10.1 11.7 81 1.8 WSW 28 43 15 23 - - 18.6
25/07:49am 15.0 9.5 11.8 81 1.8 WSW 32 50 17 27 - - 18.6
25/07:46am 15.0 9.5 11.8 81 1.8 W 32 46 17 25 - - 18.6
25/07:30am 15.0 11.2 12.5 85 1.4 W 24 37 13 20 - - 18.6
25/07:00am 14.9 11.2 12.8 87 1.2 W 24 44 13 24 - - 18.6
25/06:30am 14.9 10.5 12.8 87 1.2 W 28 48 15 26 - - 18.6
25/06:04am 15.0 10.5 12.7 86 1.3 W 28 46 15 25 - - 18.6
25/06:01am 15.0 10.5 12.7 86 1.3 W 28 46 15 25 - - 18.6
25/06:00am 15.0 10.2 12.9 87 1.2 W 30 46 16 25 - - 18.6
25/05:43am 15.2 9.5 12.9 86 1.3 W 35 54 19 29 - - 18.6
25/05:30am 15.1 10.3 12.8 86 1.3 W 30 41 16 22 - - 18.6
25/05:15am 15.4 11.0 12.9 85 1.5 W 28 50 15 27 - - 18.6
25/05:00am 15.5 13.1 12.6 83 1.7 WNW 17 24 9 13 - - 18.6
25/04:57am 15.4 13.0 12.7 84 1.6 NW 17 24 9 13 - - 18.6
25/04:31am 15.3 10.6 13.1 87 1.3 W 30 52 16 28 - - 18.6
25/04:30am 15.3 11.0 13.1 87 1.3 W 28 44 15 24 - - 18.6
25/04:14am 15.5 10.2 13.2 86 1.3 W 33 54 18 29 - - 18.6
25/04:12am 15.5 10.4 13.2 86 1.3 W 32 46 17 25 - - 18.6
25/04:01am 15.6 10.5 13.1 85 1.5 W 32 50 17 27 - - 18.6
25/04:00am 15.6 10.3 13.1 85 1.5 W 33 50 18 27 - - 18.6
25/03:30am 16.2 11.0 12.9 81 1.9 WNW 32 56 17 30 - - 18.6
25/03:00am 16.6 11.8 12.8 78 2.2 W 30 50 16 27 - - 18.6
25/02:42am 17.1 11.6 12.0 72 2.9 W 32 50 17 27 - - 18.6
25/02:30am 17.3 12.9 11.6 69 3.3 W 26 39 14 21 - - 18.6
25/02:00am 16.3 12.9 13.8 85 1.5 WNW 24 37 13 20 - - 18.6
25/01:30am 16.2 12.7 14.6 90 1.0 W 26 44 14 24 - - 18.4
25/01:19am 16.5 13.5 14.9 90 1.0 W 24 37 13 20 - - 18.0
25/01:09am 16.7 14.0 14.7 88 1.2 W 22 37 12 20 - - 17.8
25/01:00am 17.4 15.1 14.7 84 1.6 W 20 37 11 20 - - 17.6
25/12:30am 18.1 14.5 14.2 78 2.4 W 26 39 14 21 - - 17.6
25/12:00am 18.3 15.5 14.2 77 2.5 W 22 37 12 20 - - 17.6
 
Date/Time
EDT
Tmp

°C
App
Tmp
°C
Dew
Point
°C
Rel
Hum
%
Delta-T

°C
Wind Press
QNH
hPa
Press
MSL
hPa
Rain
since
9 am
mm
Dir
 
Spd
km/h
Gust
km/h
Spd
kts
Gust
kts
24/11:30pm 18.3 15.5 14.4 78 2.4 W 22 37 12 20 - - 17.6
24/11:00pm 18.6 15.7 14.1 75 2.7 W 22 30 12 16 - - 17.6
24/10:30pm 18.8 16.3 14.1 74 2.8 W 20 33 11 18 - - 17.6
24/10:00pm 19.4 16.0 13.8 70 3.4 W 24 43 13 23 - - 17.6
24/09:33pm 21.2 15.4 12.6 58 5.1 W 35 56 19 30 - - 17.6
24/09:30pm 21.3 15.5 12.7 58 5.1 W 35 50 19 27 - - 17.6
24/09:21pm 21.6 17.1 12.5 56 5.4 W 28 50 15 27 - - 17.6
24/09:00pm 22.3 18.1 12.5 53 5.9 W 26 43 14 23 - - 17.6
24/08:30pm 22.1 19.3 14.2 61 4.8 W 22 35 12 19 - - 17.6
24/08:27pm 21.9 19.5 14.5 63 4.6 W 20 35 11 19 - - 17.6
24/08:23pm 20.9 20.9 16.3 75 2.9 NW 11 20 6 11 - - 17.6
24/08:00pm 20.0 20.8 18.1 89 1.2 NE 11 19 6 10 - - 17.6
24/07:58pm 20.2 20.9 18.0 87 1.4 NE 11 15 6 8 - - 17.6
24/07:55pm 20.4 21.1 18.0 86 1.6 NE 11 15 6 8 - - 17.6
24/07:30pm 23.2 21.4 13.4 54 6.0 W 15 22 8 12 - - 17.6
24/07:00pm 23.6 21.8 13.2 52 6.3 WNW 15 26 8 14 - - 17.6
24/06:30pm 24.1 23.1 15.6 59 5.4 W 15 22 8 12 - - 17.6
24/06:00pm 23.3 21.9 16.6 66 4.3 W 19 26 10 14 - - 17.6
24/05:30pm 25.1 24.6 17.8 64 4.8 WSW 17 22 9 12 - - 17.6
24/05:00pm 24.7 24.7 17.2 63 4.9 W 13 20 7 11 - - 17.6
24/04:30pm 23.3 23.1 16.6 66 4.3 WSW 13 19 7 10 - - 17.6
24/04:00pm 24.2 23.7 17.9 68 4.1 W 17 28 9 15 - - 17.6
24/03:30pm 22.5 24.0 18.9 80 2.4 WNW 9 17 5 9 - - 17.6
24/03:19pm 20.8 22.3 19.8 94 0.7 W 11 20 6 11 - - 17.6
24/03:00pm 18.2 17.2 16.7 91 0.9 NNE 17 28 9 15 - - 17.4
24/02:59pm 18.2 17.2 16.7 91 0.9 NNE 17 28 9 15 - - 17.2
24/02:40pm 18.4 15.8 16.0 86 1.5 WNW 24 63 13 34 - - 16.8
24/02:35pm 19.2 15.2 16.1 82 1.9 WNW 32 63 17 34 - - 14.0
24/02:30pm 19.2 17.2 15.5 79 2.3 N 20 32 11 17 - - 11.6
24/02:14pm 23.8 24.1 17.8 69 3.9 ENE 13 22 7 12 - - 2.2
24/02:00pm 27.2 26.7 15.9 50 7.2 ENE 13 19 7 10 - - 0.2
24/01:30pm 29.9 30.9 17.7 48 8.1 NE 9 15 5 8 - - 0.2
24/01:00pm 28.3 28.1 15.6 46 8.1 NNE 11 20 6 11 - - 0.2
24/12:30pm 29.2 30.0 17.4 49 7.8 ENE 9 17 5 9 - - 0.2
24/12:00pm 28.8 29.1 17.0 49 7.7 ENE 11 19 6 10 - - 0.2
24/11:30am 27.3 27.6 16.0 50 7.3 ENE 9 17 5 9 - - 0.2
24/11:00am 26.7 26.5 14.8 48 7.5 NE 9 17 5 9 - - 0.2
24/10:30am 25.4 25.1 15.4 54 6.3 NNE 11 17 6 9 - - 0.2
24/10:00am 24.6 23.8 15.2 55 5.9 NNE 13 20 7 11 - - 0.2
24/09:30am 24.1 23.3 15.1 57 5.6 ENE 13 22 7 12 - - 0.2
24/09:00am 22.8 22.4 16.1 66 4.2 ENE 13 20 7 11 - - 0.6
24/08:30am 21.8 21.9 15.6 68 3.9 ENE 9 13 5 7 - - 0.6
24/08:00am 20.6 20.0 14.7 69 3.6 ENE 11 19 6 10 - - 0.6
24/07:30am 20.2 18.7 13.2 64 4.2 ENE 13 20 7 11 - - 0.6
24/07:00am 21.0 20.7 12.7 59 4.9 E 6 11 3 6 - - 0.6
24/06:30am 20.5 18.2 11.7 57 5.1 W 15 17 8 9 - - 0.6
24/06:00am 20.7 17.9 11.3 55 5.5 W 17 20 9 11 - - 0.6

Latest Capital City Observations: Canberra | Sydney | Melbourne | Brisbane | Adelaide | Perth | Hobart | Darwin

Other Formats:

Comma delimited format used in spreadsheet applications
http://www.bom.gov.au/fwo/IDN60901/IDN60901.94743.axf

JavaScript Object Notation format (JSON) in row-major order
http://www.bom.gov.au/fwo/IDN60901/IDN60901.94743.json